This is the latest recevied weather packets stored in our database for station/object W1CAT. If no packets are shown the sender has not sent any weather packets the latest 1 day(s).
| Time | Temp. | Humidity | Pressure | Rain* | Wind** | Luminosity | Snow |
|---|---|---|---|---|---|---|---|
| 1778015590 | 15° C | 43% | - | 0 mm | 1.34 m/s, 135° | - | - |
| 1778015286 | 14.44° C | 43% | - | 0 mm | 1.79 m/s, 126° | - | - |
| 1778014983 | 13.89° C | 44% | - | 0 mm | 2.24 m/s, 152° | - | - |
| 1778014680 | 13.89° C | 44% | - | 0 mm | 2.68 m/s, 175° | - | - |
| 1778014378 | 14.44° C | 42% | - | 0 mm | 0.89 m/s, 149° | - | - |
| 1778014074 | 14.44° C | 41% | - | 0 mm | 2.68 m/s, 171° | - | - |
| 1778013773 | 15° C | 40% | - | 0 mm | 2.68 m/s, 116° | - | - |
| 1778013469 | 15.56° C | 40% | - | 0 mm | 2.68 m/s, 196° | - | - |
| 1778013166 | 15° C | 40% | - | 0 mm | 0.89 m/s, 178° | - | - |
| 1778012862 | 15° C | 40% | - | 0 mm | 3.13 m/s, 225° | - | - |
| 1778012558 | 14.44° C | 41% | - | 0 mm | 2.24 m/s, 230° | - | - |
| 1778012255 | 12.78° C | 41% | - | 0 mm | 1.34 m/s, 229° | - | - |
| 1778011953 | 12.78° C | 42% | - | 0 mm | 1.34 m/s, 163° | - | - |
| 1778011651 | 13.33° C | 37% | - | 0 mm | 1.79 m/s, 189° | - | - |
| 1778011348 | 13.33° C | 36% | - | 0 mm | 0.89 m/s, 90° | - | - |
| 1778011043 | 12.78° C | 38% | - | 0 mm | 0.89 m/s, 169° | - | - |
| 1778010741 | 13.33° C | 35% | - | 0 mm | 1.34 m/s, 101° | - | - |
| 1778010438 | 13.89° C | 33% | - | 0 mm | 1.34 m/s, 191° | - | - |
| 1778010134 | 13.89° C | 32% | - | 0 mm | 1.79 m/s, 162° | - | - |
| 1778009830 | 13.89° C | 32% | - | 0 mm | 2.68 m/s, 146° | - | - |
| 1778009528 | 14.44° C | 30% | - | 0 mm | 1.79 m/s, 357° | - | - |
| 1778009226 | 13.89° C | 32% | - | 0 mm | 0.89 m/s, 104° | - | - |
| 1778008923 | 13.33° C | 43% | - | 0 mm | 0.45 m/s, 51° | - | - |
| 1778008622 | 13.89° C | 38% | - | 0 mm | 0.89 m/s, 111° | - | - |
| 1778008319 | 13.89° C | 40% | - | 0 mm | 1.79 m/s, 126° | - | - |
* Rain latest hour (hover to see other rain measurements)
** Current wind speed in m/s (hover to see current wind gust speed)